sensor_id;sensor_type;location;lat;lon;timestamp;temperature;humidity
61400;DHT22;47269;48.182;-1.946;2023-04-03T06:01:19;4.70;99.90
61400;DHT22;47269;48.182;-1.946;2023-04-03T06:03:45;4.80;99.90
61400;DHT22;47269;48.182;-1.946;2023-04-03T06:06:13;4.80;99.90
61400;DHT22;47269;48.182;-1.946;2023-04-03T06:08:39;4.90;99.90
61400;DHT22;47269;48.182;-1.946;2023-04-03T06:11:05;4.90;99.90
61400;DHT22;47269;48.182;-1.946;2023-04-03T06:13:31;4.80;99.90
61400;DHT22;47269;48.182;-1.946;2023-04-03T06:15:58;5.00;99.90
61400;DHT22;47269;48.182;-1.946;2023-04-03T06:18:24;5.00;99.90
61400;DHT22;47269;48.182;-1.946;2023-04-03T06:20:49;5.10;99.90
61400;DHT22;47269;48.182;-1.946;2023-04-03T06:23:15;5.10;99.90
61400;DHT22;47269;48.182;-1.946;2023-04-03T06:25:41;5.20;99.90
61400;DHT22;47269;48.182;-1.946;2023-04-03T06:28:08;5.10;99.90
61400;DHT22;47269;48.182;-1.946;2023-04-03T06:30:36;5.10;99.90
61400;DHT22;47269;48.182;-1.946;2023-04-03T06:33:02;5.10;99.90
61400;DHT22;47269;48.182;-1.946;2023-04-03T06:35:28;5.10;99.90
61400;DHT22;47269;48.182;-1.946;2023-04-03T06:37:55;5.10;99.90
61400;DHT22;47269;48.182;-1.946;2023-04-03T06:40:23;5.20;99.90
61400;DHT22;47269;48.182;-1.946;2023-04-03T06:42:49;5.30;99.90
61400;DHT22;47269;48.182;-1.946;2023-04-03T06:45:16;5.40;99.90
61400;DHT22;47269;48.182;-1.946;2023-04-03T06:47:41;5.50;99.90
61400;DHT22;47269;48.182;-1.946;2023-04-03T06:50:09;5.50;99.90
61400;DHT22;47269;48.182;-1.946;2023-04-03T06:52:36;5.40;99.90
61400;DHT22;47269;48.182;-1.946;2023-04-03T06:55:03;5.60;99.90
61400;DHT22;47269;48.182;-1.946;2023-04-03T06:57:29;6.60;99.90
61400;DHT22;47269;48.182;-1.946;2023-04-03T06:59:54;7.50;99.90
61400;DHT22;47269;48.182;-1.946;2023-04-03T07:02:20;7.70;99.90
61400;DHT22;47269;48.182;-1.946;2023-04-03T07:04:47;7.80;99.90
61400;DHT22;47269;48.182;-1.946;2023-04-03T07:07:12;8.00;99.90
61400;DHT22;47269;48.182;-1.946;2023-04-03T07:09:38;8.00;99.90
61400;DHT22;47269;48.182;-1.946;2023-04-03T07:12:05;7.80;99.90
61400;DHT22;47269;48.182;-1.946;2023-04-03T07:14:30;7.90;99.90
61400;DHT22;47269;48.182;-1.946;2023-04-03T07:16:56;8.10;99.90
61400;DHT22;47269;48.182;-1.946;2023-04-03T07:19:22;7.50;99.90
61400;DHT22;47269;48.182;-1.946;2023-04-03T07:21:49;7.30;99.90
61400;DHT22;47269;48.182;-1.946;2023-04-03T07:24:15;7.70;99.90
61400;DHT22;47269;48.182;-1.946;2023-04-03T07:26:41;7.00;99.90
61400;DHT22;47269;48.182;-1.946;2023-04-03T07:29:07;7.10;99.90
61400;DHT22;47269;48.182;-1.946;2023-04-03T07:31:32;7.70;99.90
61400;DHT22;47269;48.182;-1.946;2023-04-03T07:33:59;7.40;99.90
61400;DHT22;47269;48.182;-1.946;2023-04-03T07:36:25;7.20;99.90
61400;DHT22;47269;48.182;-1.946;2023-04-03T07:38:50;7.50;99.90
61400;DHT22;47269;48.182;-1.946;2023-04-03T07:41:18;7.40;99.90
61400;DHT22;47269;48.182;-1.946;2023-04-03T07:43:45;6.80;99.90
61400;DHT22;47269;48.182;-1.946;2023-04-03T07:46:12;7.00;99.90
61400;DHT22;47269;48.182;-1.946;2023-04-03T07:48:38;7.20;99.90
61400;DHT22;47269;48.182;-1.946;2023-04-03T07:51:04;7.60;99.90
61400;DHT22;47269;48.182;-1.946;2023-04-03T07:53:31;7.60;99.90
61400;DHT22;47269;48.182;-1.946;2023-04-03T07:55:59;7.60;99.90
61400;DHT22;47269;48.182;-1.946;2023-04-03T07:58:25;7.20;99.90
61400;DHT22;47269;48.182;-1.946;2023-04-03T08:00:51;7.40;99.90
61400;DHT22;47269;48.182;-1.946;2023-04-03T08:03:17;7.30;99.90
61400;DHT22;47269;48.182;-1.946;2023-04-03T08:05:45;7.40;99.90
61400;DHT22;47269;48.182;-1.946;2023-04-03T08:08:13;7.50;99.90
61400;DHT22;47269;48.182;-1.946;2023-04-03T08:10:39;7.40;99.90
61400;DHT22;47269;48.182;-1.946;2023-04-03T08:13:05;7.50;99.90
61400;DHT22;47269;48.182;-1.946;2023-04-03T08:15:32;7.20;99.90
61400;DHT22;47269;48.182;-1.946;2023-04-03T08:17:58;7.20;99.90
61400;DHT22;47269;48.182;-1.946;2023-04-03T08:20:24;6.90;99.90
61400;DHT22;47269;48.182;-1.946;2023-04-03T08:22:51;7.10;99.90
61400;DHT22;47269;48.182;-1.946;2023-04-03T08:25:16;7.50;99.90
61400;DHT22;47269;48.182;-1.946;2023-04-03T08:27:43;7.30;99.90
61400;DHT22;47269;48.182;-1.946;2023-04-03T08:30:09;7.60;99.90
61400;DHT22;47269;48.182;-1.946;2023-04-03T08:32:35;7.50;99.90
61400;DHT22;47269;48.182;-1.946;2023-04-03T08:35:02;7.90;99.90
61400;DHT22;47269;48.182;-1.946;2023-04-03T08:37:27;7.60;99.90
61400;DHT22;47269;48.182;-1.946;2023-04-03T08:39:53;7.30;99.90
61400;DHT22;47269;48.182;-1.946;2023-04-03T08:45:16;7.90;99.90
61400;DHT22;47269;48.182;-1.946;2023-04-03T08:47:52;7.80;99.90
61400;DHT22;47269;48.182;-1.946;2023-04-03T08:50:20;7.70;99.90
61400;DHT22;47269;48.182;-1.946;2023-04-03T08:52:52;7.70;99.90
61400;DHT22;47269;48.182;-1.946;2023-04-03T08:55:28;7.80;99.90
61400;DHT22;47269;48.182;-1.946;2023-04-03T08:58:06;8.00;99.90
61400;DHT22;47269;48.182;-1.946;2023-04-03T09:00:40;8.00;99.90
61400;DHT22;47269;48.182;-1.946;2023-04-03T09:03:12;7.80;99.90
61400;DHT22;47269;48.182;-1.946;2023-04-03T09:06:02;7.70;99.90
61400;DHT22;47269;48.182;-1.946;2023-04-03T09:14:02;7.60;99.90
61400;DHT22;47269;48.182;-1.946;2023-04-03T09:24:28;7.80;99.90
61400;DHT22;47269;48.182;-1.946;2023-04-03T09:27:14;7.90;99.90
61400;DHT22;47269;48.182;-1.946;2023-04-03T09:29:42;7.80;99.90
61400;DHT22;47269;48.182;-1.946;2023-04-03T09:32:21;7.80;99.90
61400;DHT22;47269;48.182;-1.946;2023-04-03T09:34:49;8.00;99.90
61400;DHT22;47269;48.182;-1.946;2023-04-03T09:37:52;7.80;99.90
61400;DHT22;47269;48.182;-1.946;2023-04-03T09:43:18;7.60;99.90
61400;DHT22;47269;48.182;-1.946;2023-04-03T09:45:47;7.70;99.90
61400;DHT22;47269;48.182;-1.946;2023-04-03T09:56:02;8.40;99.90
61400;DHT22;47269;48.182;-1.946;2023-04-03T09:58:38;8.50;99.90
61400;DHT22;47269;48.182;-1.946;2023-04-03T10:01:06;8.60;99.90
61400;DHT22;47269;48.182;-1.946;2023-04-03T10:03:44;8.60;99.90
61400;DHT22;47269;48.182;-1.946;2023-04-03T10:06:22;8.60;99.90
61400;DHT22;47269;48.182;-1.946;2023-04-03T10:09:00;8.80;99.90
61400;DHT22;47269;48.182;-1.946;2023-04-03T10:11:28;9.00;99.90
61400;DHT22;47269;48.182;-1.946;2023-04-03T10:14:00;8.90;99.90
61400;DHT22;47269;48.182;-1.946;2023-04-03T10:16:45;9.00;99.90
61400;DHT22;47269;48.182;-1.946;2023-04-03T10:22:15;8.80;99.90
61400;DHT22;47269;48.182;-1.946;2023-04-03T10:24:59;9.20;99.90
61400;DHT22;47269;48.182;-1.946;2023-04-03T10:28:15;9.70;99.90
61400;DHT22;47269;48.182;-1.946;2023-04-03T10:36:52;9.70;99.90
61400;DHT22;47269;48.182;-1.946;2023-04-03T10:39:34;9.40;99.90
61400;DHT22;47269;48.182;-1.946;2023-04-03T10:53:16;9.70;99.90
61400;DHT22;47269;48.182;-1.946;2023-04-03T10:56:00;10.00;99.90
61400;DHT22;47269;48.182;-1.946;2023-04-03T10:58:42;9.80;99.90
61400;DHT22;47269;48.182;-1.946;2023-04-03T11:01:14;9.30;99.90
61400;DHT22;47269;48.182;-1.946;2023-04-03T11:03:48;9.30;99.90
61400;DHT22;47269;48.182;-1.946;2023-04-03T11:06:18;9.20;99.90
61400;DHT22;47269;48.182;-1.946;2023-04-03T11:08:55;8.90;99.90
61400;DHT22;47269;48.182;-1.946;2023-04-03T11:11:26;9.10;99.90
61400;DHT22;47269;48.182;-1.946;2023-04-03T11:14:01;9.50;99.90
61400;DHT22;47269;48.182;-1.946;2023-04-03T11:16:30;9.60;99.90
61400;DHT22;47269;48.182;-1.946;2023-04-03T11:19:03;9.50;99.90
61400;DHT22;47269;48.182;-1.946;2023-04-03T11:21:46;10.20;99.90
61400;DHT22;47269;48.182;-1.946;2023-04-03T11:24:23;13.10;99.90
61400;DHT22;47269;48.182;-1.946;2023-04-03T11:26:51;13.30;99.90
61400;DHT22;47269;48.182;-1.946;2023-04-03T11:29:22;11.40;99.90
61400;DHT22;47269;48.182;-1.946;2023-04-03T11:34:40;18.30;99.90
61400;DHT22;47269;48.182;-1.946;2023-04-03T11:42:41;20.30;89.90
61400;DHT22;47269;48.182;-1.946;2023-04-03T11:50:48;20.90;81.70
61400;DHT22;47269;48.182;-1.946;2023-04-03T11:58:17;20.10;87.20
61400;DHT22;47269;48.182;-1.946;2023-04-03T12:24:26;14.30;99.90
61400;DHT22;47269;48.182;-1.946;2023-04-03T12:29:52;14.30;99.90
61400;DHT22;47269;48.182;-1.946;2023-04-03T12:35:37;14.60;99.90
61400;DHT22;47269;48.182;-1.946;2023-04-03T12:46:46;17.90;85.70
61400;DHT22;47269;48.182;-1.946;2023-04-03T12:49:35;20.20;84.30
61400;DHT22;47269;48.182;-1.946;2023-04-03T12:52:06;22.60;68.70
61400;DHT22;47269;48.182;-1.946;2023-04-03T12:54:42;18.00;72.40
61400;DHT22;47269;48.182;-1.946;2023-04-03T12:57:17;20.30;87.10
61400;DHT22;47269;48.182;-1.946;2023-04-03T12:59:43;20.90;69.20
61400;DHT22;47269;48.182;-1.946;2023-04-03T13:02:22;20.20;64.70
61400;DHT22;47269;48.182;-1.946;2023-04-03T13:04:50;22.80;54.80
61400;DHT22;47269;48.182;-1.946;2023-04-03T13:12:33;16.10;82.50
61400;DHT22;47269;48.182;-1.946;2023-04-03T13:15:11;17.50;91.90
61400;DHT22;47269;48.182;-1.946;2023-04-03T13:17:39;22.70;67.50
61400;DHT22;47269;48.182;-1.946;2023-04-03T13:20:23;23.80;59.10
61400;DHT22;47269;48.182;-1.946;2023-04-03T13:25:49;18.70;62.40
61400;DHT22;47269;48.182;-1.946;2023-04-03T13:28:21;19.10;74.60
61400;DHT22;47269;48.182;-1.946;2023-04-03T13:36:39;17.90;69.50
61400;DHT22;47269;48.182;-1.946;2023-04-03T13:41:47;13.20;99.90
61400;DHT22;47269;48.182;-1.946;2023-04-03T13:46:43;13.20;99.90
61400;DHT22;47269;48.182;-1.946;2023-04-03T13:50:00;13.50;99.90
61400;DHT22;47269;48.182;-1.946;2023-04-03T13:52:38;13.30;99.90
61400;DHT22;47269;48.182;-1.946;2023-04-03T13:57:57;13.40;99.90
61400;DHT22;47269;48.182;-1.946;2023-04-03T14:03:00;16.70;99.90
61400;DHT22;47269;48.182;-1.946;2023-04-03T14:05:26;15.60;99.90
61400;DHT22;47269;48.182;-1.946;2023-04-03T14:07:53;13.90;99.90
61400;DHT22;47269;48.182;-1.946;2023-04-03T14:10:20;14.30;99.90
61400;DHT22;47269;48.182;-1.946;2023-04-03T14:12:46;13.40;99.90
61400;DHT22;47269;48.182;-1.946;2023-04-03T14:15:22;13.00;99.90
61400;DHT22;47269;48.182;-1.946;2023-04-03T14:17:50;12.50;99.90
61400;DHT22;47269;48.182;-1.946;2023-04-03T14:20:20;13.10;99.90
61400;DHT22;47269;48.182;-1.946;2023-04-03T14:22:47;14.40;99.90
61400;DHT22;47269;48.182;-1.946;2023-04-03T14:25:15;15.20;99.90
61400;DHT22;47269;48.182;-1.946;2023-04-03T14:27:46;14.60;99.90
61400;DHT22;47269;48.182;-1.946;2023-04-03T14:30:19;14.10;99.90
61400;DHT22;47269;48.182;-1.946;2023-04-03T14:32:46;13.00;99.90
61400;DHT22;47269;48.182;-1.946;2023-04-03T14:35:13;15.10;99.90
61400;DHT22;47269;48.182;-1.946;2023-04-03T14:37:40;13.50;99.90
61400;DHT22;47269;48.182;-1.946;2023-04-03T14:40:08;13.20;99.90
61400;DHT22;47269;48.182;-1.946;2023-04-03T14:42:36;13.10;99.90
61400;DHT22;47269;48.182;-1.946;2023-04-03T14:45:06;13.40;99.90
61400;DHT22;47269;48.182;-1.946;2023-04-03T14:47:32;14.90;99.90
61400;DHT22;47269;48.182;-1.946;2023-04-03T14:50:00;13.40;99.90
61400;DHT22;47269;48.182;-1.946;2023-04-03T14:52:32;13.70;99.90
61400;DHT22;47269;48.182;-1.946;2023-04-03T14:54:58;13.60;99.90
61400;DHT22;47269;48.182;-1.946;2023-04-03T14:57:27;14.60;99.90
61400;DHT22;47269;48.182;-1.946;2023-04-03T14:59:53;15.40;99.90
61400;DHT22;47269;48.182;-1.946;2023-04-03T15:02:34;14.60;99.90
61400;DHT22;47269;48.182;-1.946;2023-04-03T15:05:02;15.10;99.90
61400;DHT22;47269;48.182;-1.946;2023-04-03T15:07:31;14.30;99.90
61400;DHT22;47269;48.182;-1.946;2023-04-03T15:10:18;14.30;99.90
61400;DHT22;47269;48.182;-1.946;2023-04-03T15:12:45;14.60;99.90
61400;DHT22;47269;48.182;-1.946;2023-04-03T15:15:11;15.20;99.90
61400;DHT22;47269;48.182;-1.946;2023-04-03T15:17:37;13.60;99.90
61400;DHT22;47269;48.182;-1.946;2023-04-03T15:20:11;13.90;99.90
61400;DHT22;47269;48.182;-1.946;2023-04-03T15:22:37;14.60;99.90
61400;DHT22;47269;48.182;-1.946;2023-04-03T15:25:03;13.80;99.90
61400;DHT22;47269;48.182;-1.946;2023-04-03T15:27:32;14.50;99.90
61400;DHT22;47269;48.182;-1.946;2023-04-03T15:29:58;14.60;99.90
61400;DHT22;47269;48.182;-1.946;2023-04-03T15:32:24;13.30;99.90
61400;DHT22;47269;48.182;-1.946;2023-04-03T15:34:49;12.90;99.90
61400;DHT22;47269;48.182;-1.946;2023-04-03T15:37:15;12.70;99.90
61400;DHT22;47269;48.182;-1.946;2023-04-03T15:39:41;13.40;99.90
61400;DHT22;47269;48.182;-1.946;2023-04-03T15:42:07;13.90;99.90
61400;DHT22;47269;48.182;-1.946;2023-04-03T15:44:33;13.20;99.90
61400;DHT22;47269;48.182;-1.946;2023-04-03T15:47:00;12.60;99.90
61400;DHT22;47269;48.182;-1.946;2023-04-03T15:49:27;12.60;99.90
61400;DHT22;47269;48.182;-1.946;2023-04-03T15:51:53;12.70;99.90
61400;DHT22;47269;48.182;-1.946;2023-04-03T15:54:18;13.00;99.90
61400;DHT22;47269;48.182;-1.946;2023-04-03T15:56:44;13.90;99.90
61400;DHT22;47269;48.182;-1.946;2023-04-03T15:59:10;13.70;99.90
61400;DHT22;47269;48.182;-1.946;2023-04-03T16:01:37;13.10;99.90
61400;DHT22;47269;48.182;-1.946;2023-04-03T16:04:03;13.10;99.90
61400;DHT22;47269;48.182;-1.946;2023-04-03T16:06:29;13.20;99.90
61400;DHT22;47269;48.182;-1.946;2023-04-03T16:08:56;13.10;99.90
61400;DHT22;47269;48.182;-1.946;2023-04-03T16:11:24;12.70;99.90
61400;DHT22;47269;48.182;-1.946;2023-04-03T16:13:50;13.20;99.90
61400;DHT22;47269;48.182;-1.946;2023-04-03T16:16:16;13.80;99.90
61400;DHT22;47269;48.182;-1.946;2023-04-03T16:18:42;13.10;99.90
61400;DHT22;47269;48.182;-1.946;2023-04-03T16:21:07;13.20;99.90
61400;DHT22;47269;48.182;-1.946;2023-04-03T16:23:34;13.50;99.90
61400;DHT22;47269;48.182;-1.946;2023-04-03T16:26:00;13.10;99.90
61400;DHT22;47269;48.182;-1.946;2023-04-03T16:28:26;13.30;99.90
61400;DHT22;47269;48.182;-1.946;2023-04-03T16:30:51;13.80;99.90
61400;DHT22;47269;48.182;-1.946;2023-04-03T16:33:17;13.70;99.90
61400;DHT22;47269;48.182;-1.946;2023-04-03T16:35:46;13.70;99.90
61400;DHT22;47269;48.182;-1.946;2023-04-03T16:38:13;13.70;99.90
61400;DHT22;47269;48.182;-1.946;2023-04-03T16:40:40;13.50;99.90
61400;DHT22;47269;48.182;-1.946;2023-04-03T16:43:06;13.50;99.90
61400;DHT22;47269;48.182;-1.946;2023-04-03T16:45:32;13.50;99.90
61400;DHT22;47269;48.182;-1.946;2023-04-03T16:47:57;13.40;99.90
61400;DHT22;47269;48.182;-1.946;2023-04-03T16:50:23;13.40;99.90
61400;DHT22;47269;48.182;-1.946;2023-04-03T16:52:49;13.40;99.90
61400;DHT22;47269;48.182;-1.946;2023-04-03T16:55:14;13.20;99.90
61400;DHT22;47269;48.182;-1.946;2023-04-03T16:57:40;13.60;99.90
61400;DHT22;47269;48.182;-1.946;2023-04-03T17:00:06;13.70;99.90
61400;DHT22;47269;48.182;-1.946;2023-04-03T17:02:32;13.60;99.90
61400;DHT22;47269;48.182;-1.946;2023-04-03T17:04:58;13.10;99.90
61400;DHT22;47269;48.182;-1.946;2023-04-03T17:07:25;13.10;99.90
61400;DHT22;47269;48.182;-1.946;2023-04-03T17:09:51;13.20;99.90
61400;DHT22;47269;48.182;-1.946;2023-04-03T17:12:19;13.10;99.90
61400;DHT22;47269;48.182;-1.946;2023-04-03T17:14:45;13.20;99.90
61400;DHT22;47269;48.182;-1.946;2023-04-03T17:17:13;13.10;99.90
61400;DHT22;47269;48.182;-1.946;2023-04-03T17:19:39;13.20;99.90
61400;DHT22;47269;48.182;-1.946;2023-04-03T17:22:06;13.20;99.90
61400;DHT22;47269;48.182;-1.946;2023-04-03T17:24:32;13.00;99.90
61400;DHT22;47269;48.182;-1.946;2023-04-03T17:26:58;12.90;99.90
61400;DHT22;47269;48.182;-1.946;2023-04-03T17:29:24;13.00;99.90
61400;DHT22;47269;48.182;-1.946;2023-04-03T17:31:50;12.90;99.90
61400;DHT22;47269;48.182;-1.946;2023-04-03T17:34:15;12.70;99.90
61400;DHT22;47269;48.182;-1.946;2023-04-03T17:36:41;12.70;99.90
61400;DHT22;47269;48.182;-1.946;2023-04-03T17:39:07;12.70;99.90
61400;DHT22;47269;48.182;-1.946;2023-04-03T17:41:33;12.60;99.90
61400;DHT22;47269;48.182;-1.946;2023-04-03T17:43:59;12.40;99.90
61400;DHT22;47269;48.182;-1.946;2023-04-03T17:46:43;12.40;99.90
61400;DHT22;47269;48.182;-1.946;2023-04-03T17:49:09;12.60;99.90
61400;DHT22;47269;48.182;-1.946;2023-04-03T17:51:41;12.30;99.90
61400;DHT22;47269;48.182;-1.946;2023-04-03T17:54:07;12.30;99.90
61400;DHT22;47269;48.182;-1.946;2023-04-03T17:56:33;12.30;99.90
61400;DHT22;47269;48.182;-1.946;2023-04-03T17:58:59;12.30;99.90
61400;DHT22;47269;48.182;-1.946;2023-04-03T18:01:30;12.30;99.90
61400;DHT22;47269;48.182;-1.946;2023-04-03T18:03:58;12.20;99.90
61400;DHT22;47269;48.182;-1.946;2023-04-03T18:06:27;12.20;99.90
61400;DHT22;47269;48.182;-1.946;2023-04-03T18:08:56;12.00;99.90
61400;DHT22;47269;48.182;-1.946;2023-04-03T18:11:26;12.00;99.90
61400;DHT22;47269;48.182;-1.946;2023-04-03T18:13:52;12.00;99.90
61400;DHT22;47269;48.182;-1.946;2023-04-03T18:16:19;11.90;99.90
61400;DHT22;47269;48.182;-1.946;2023-04-03T18:18:44;11.70;99.90
61400;DHT22;47269;48.182;-1.946;2023-04-03T18:21:12;11.50;99.90
61400;DHT22;47269;48.182;-1.946;2023-04-03T18:23:49;11.30;99.90
61400;DHT22;47269;48.182;-1.946;2023-04-03T18:26:15;11.20;99.90
61400;DHT22;47269;48.182;-1.946;2023-04-03T18:28:45;11.10;99.90
61400;DHT22;47269;48.182;-1.946;2023-04-03T18:31:12;10.90;99.90
61400;DHT22;47269;48.182;-1.946;2023-04-03T18:33:40;11.10;99.90
61400;DHT22;47269;48.182;-1.946;2023-04-03T18:36:07;11.20;99.90
61400;DHT22;47269;48.182;-1.946;2023-04-03T18:38:32;11.30;99.90
61400;DHT22;47269;48.182;-1.946;2023-04-03T18:40:59;11.20;99.90
61400;DHT22;47269;48.182;-1.946;2023-04-03T18:43:27;11.30;99.90
61400;DHT22;47269;48.182;-1.946;2023-04-03T18:45:53;11.00;99.90
61400;DHT22;47269;48.182;-1.946;2023-04-03T18:48:19;10.90;99.90
61400;DHT22;47269;48.182;-1.946;2023-04-03T18:50:46;10.40;99.90
61400;DHT22;47269;48.182;-1.946;2023-04-03T18:53:12;10.40;99.90
61400;DHT22;47269;48.182;-1.946;2023-04-03T18:55:38;10.20;99.90
61400;DHT22;47269;48.182;-1.946;2023-04-03T18:58:04;10.10;99.90
61400;DHT22;47269;48.182;-1.946;2023-04-03T19:00:30;10.10;99.90
61400;DHT22;47269;48.182;-1.946;2023-04-03T19:02:56;9.90;99.90
61400;DHT22;47269;48.182;-1.946;2023-04-03T19:05:22;10.00;99.90
61400;DHT22;47269;48.182;-1.946;2023-04-03T19:07:52;9.90;99.90
61400;DHT22;47269;48.182;-1.946;2023-04-03T19:10:19;9.80;99.90
61400;DHT22;47269;48.182;-1.946;2023-04-03T19:12:46;9.90;99.90
61400;DHT22;47269;48.182;-1.946;2023-04-03T19:15:13;9.60;99.90
61400;DHT22;47269;48.182;-1.946;2023-04-03T19:17:39;9.40;99.90
61400;DHT22;47269;48.182;-1.946;2023-04-03T19:20:06;9.40;99.90
61400;DHT22;47269;48.182;-1.946;2023-04-03T19:22:32;9.40;99.90
61400;DHT22;47269;48.182;-1.946;2023-04-03T19:24:57;9.20;99.90
61400;DHT22;47269;48.182;-1.946;2023-04-03T19:27:23;9.30;99.90
61400;DHT22;47269;48.182;-1.946;2023-04-03T19:29:49;9.30;99.90
61400;DHT22;47269;48.182;-1.946;2023-04-03T19:32:17;9.10;99.90
61400;DHT22;47269;48.182;-1.946;2023-04-03T19:34:43;9.00;99.90
61400;DHT22;47269;48.182;-1.946;2023-04-03T19:37:08;9.00;99.90
61400;DHT22;47269;48.182;-1.946;2023-04-03T19:39:36;8.80;99.90
61400;DHT22;47269;48.182;-1.946;2023-04-03T19:42:03;8.80;99.90
61400;DHT22;47269;48.182;-1.946;2023-04-03T19:44:30;8.90;99.90
61400;DHT22;47269;48.182;-1.946;2023-04-03T19:47:01;8.80;99.90
61400;DHT22;47269;48.182;-1.946;2023-04-03T19:49:27;8.70;99.90
61400;DHT22;47269;48.182;-1.946;2023-04-03T19:51:53;8.70;99.90
61400;DHT22;47269;48.182;-1.946;2023-04-03T19:54:20;8.50;99.90
61400;DHT22;47269;48.182;-1.946;2023-04-03T19:56:46;8.70;99.90
61400;DHT22;47269;48.182;-1.946;2023-04-03T19:59:12;8.60;99.90
61400;DHT22;47269;48.182;-1.946;2023-04-03T20:01:37;8.50;99.90
61400;DHT22;47269;48.182;-1.946;2023-04-03T20:04:03;8.40;99.90
61400;DHT22;47269;48.182;-1.946;2023-04-03T20:06:29;8.30;99.90
61400;DHT22;47269;48.182;-1.946;2023-04-03T20:08:55;8.10;99.90
61400;DHT22;47269;48.182;-1.946;2023-04-03T20:11:22;8.20;99.90
61400;DHT22;47269;48.182;-1.946;2023-04-03T20:13:50;8.00;99.90
61400;DHT22;47269;48.182;-1.946;2023-04-03T20:16:16;8.20;99.90
61400;DHT22;47269;48.182;-1.946;2023-04-03T20:18:43;8.30;99.90
61400;DHT22;47269;48.182;-1.946;2023-04-03T20:21:10;8.20;99.90
61400;DHT22;47269;48.182;-1.946;2023-04-03T20:23:36;8.20;99.90
61400;DHT22;47269;48.182;-1.946;2023-04-03T20:26:04;8.00;99.90
61400;DHT22;47269;48.182;-1.946;2023-04-03T20:28:31;8.00;99.90
61400;DHT22;47269;48.182;-1.946;2023-04-03T20:30:57;7.80;99.90
61400;DHT22;47269;48.182;-1.946;2023-04-03T20:33:26;8.00;99.90
61400;DHT22;47269;48.182;-1.946;2023-04-03T20:35:55;7.90;99.90
61400;DHT22;47269;48.182;-1.946;2023-04-03T20:38:21;8.00;99.90
61400;DHT22;47269;48.182;-1.946;2023-04-03T20:40:48;8.00;99.90
61400;DHT22;47269;48.182;-1.946;2023-04-03T20:43:13;8.00;99.90
61400;DHT22;47269;48.182;-1.946;2023-04-03T20:45:41;7.80;99.90
61400;DHT22;47269;48.182;-1.946;2023-04-03T20:48:06;7.90;99.90
61400;DHT22;47269;48.182;-1.946;2023-04-03T20:50:33;7.80;99.90
61400;DHT22;47269;48.182;-1.946;2023-04-03T20:52:59;7.60;99.90
61400;DHT22;47269;48.182;-1.946;2023-04-03T20:55:25;7.60;99.90
61400;DHT22;47269;48.182;-1.946;2023-04-03T20:57:51;7.70;99.90
61400;DHT22;47269;48.182;-1.946;2023-04-03T21:00:19;7.60;99.90
61400;DHT22;47269;48.182;-1.946;2023-04-03T21:02:47;7.80;99.90
61400;DHT22;47269;48.182;-1.946;2023-04-03T21:05:15;7.70;99.90
61400;DHT22;47269;48.182;-1.946;2023-04-03T21:19:22;7.20;99.90
61400;DHT22;47269;48.182;-1.946;2023-04-03T21:21:48;7.30;99.90
61400;DHT22;47269;48.182;-1.946;2023-04-03T21:24:16;7.40;99.90
61400;DHT22;47269;48.182;-1.946;2023-04-03T21:26:42;7.40;99.90
61400;DHT22;47269;48.182;-1.946;2023-04-03T21:29:09;7.30;99.90
61400;DHT22;47269;48.182;-1.946;2023-04-03T21:31:58;7.40;99.90
61400;DHT22;47269;48.182;-1.946;2023-04-03T21:34:28;7.40;99.90
61400;DHT22;47269;48.182;-1.946;2023-04-03T21:36:55;7.40;99.90
61400;DHT22;47269;48.182;-1.946;2023-04-03T21:39:21;7.40;99.90
61400;DHT22;47269;48.182;-1.946;2023-04-03T21:41:50;7.40;99.90
61400;DHT22;47269;48.182;-1.946;2023-04-03T21:44:19;7.40;99.90
61400;DHT22;47269;48.182;-1.946;2023-04-03T21:46:46;7.30;99.90
61400;DHT22;47269;48.182;-1.946;2023-04-03T21:49:12;7.30;99.90
61400;DHT22;47269;48.182;-1.946;2023-04-03T21:51:38;7.40;99.90
61400;DHT22;47269;48.182;-1.946;2023-04-03T21:54:04;7.40;99.90
61400;DHT22;47269;48.182;-1.946;2023-04-03T21:56:30;7.20;99.90
61400;DHT22;47269;48.182;-1.946;2023-04-03T21:59:05;7.20;99.90
61400;DHT22;47269;48.182;-1.946;2023-04-03T22:01:30;7.10;99.90
61400;DHT22;47269;48.182;-1.946;2023-04-03T22:03:59;7.10;99.90
61400;DHT22;47269;48.182;-1.946;2023-04-03T22:06:26;7.10;99.90
61400;DHT22;47269;48.182;-1.946;2023-04-03T22:08:51;7.00;99.90
61400;DHT22;47269;48.182;-1.946;2023-04-03T22:11:18;7.00;99.90
61400;DHT22;47269;48.182;-1.946;2023-04-03T22:13:44;6.80;99.90
61400;DHT22;47269;48.182;-1.946;2023-04-03T22:16:11;6.90;99.90
61400;DHT22;47269;48.182;-1.946;2023-04-03T22:18:37;6.90;99.90
61400;DHT22;47269;48.182;-1.946;2023-04-03T22:21:03;6.90;99.90
61400;DHT22;47269;48.182;-1.946;2023-04-03T22:23:30;6.80;99.90
61400;DHT22;47269;48.182;-1.946;2023-04-03T22:28:31;6.80;99.90
61400;DHT22;47269;48.182;-1.946;2023-04-03T22:31:03;6.80;99.90
61400;DHT22;47269;48.182;-1.946;2023-04-03T22:33:29;6.80;99.90
61400;DHT22;47269;48.182;-1.946;2023-04-03T22:35:55;6.80;99.90
61400;DHT22;47269;48.182;-1.946;2023-04-03T22:38:23;6.70;99.90
61400;DHT22;47269;48.182;-1.946;2023-04-03T22:41:00;7.00;99.90
61400;DHT22;47269;48.182;-1.946;2023-04-03T22:43:27;7.10;99.90
61400;DHT22;47269;48.182;-1.946;2023-04-03T22:45:54;6.90;99.90
61400;DHT22;47269;48.182;-1.946;2023-04-03T22:48:21;6.70;99.90
61400;DHT22;47269;48.182;-1.946;2023-04-03T22:50:47;6.80;99.90
61400;DHT22;47269;48.182;-1.946;2023-04-03T22:53:13;6.90;99.90
61400;DHT22;47269;48.182;-1.946;2023-04-03T22:55:39;6.80;99.90
61400;DHT22;47269;48.182;-1.946;2023-04-03T22:58:05;6.70;99.90
